📊 Raw Sensor Data

Showing records 52251 to 52275 of 85,273 total

ID Distance (ft) Battery V Battery A Int Temp (°F) Int Humid (%) Ext Temp (°F) Solar V RSSI SNR Time Stamp
33035 14.1 3.77 0 77 39 69 5.10 -74 8 02/21/2025 04:15 PM
33034 14.1 4.07 0 77 41 66 5.10 -74 8 02/21/2025 04:00 PM
33033 14.2 4.00 0 87 35 72 5.10 -74 8 02/21/2025 03:45 PM
33032 14.2 4.04 0 86 35 71 5.10 -73 8 02/21/2025 03:30 PM
33031 14.3 3.77 0 86 34 71 5.10 -75 8 02/21/2025 03:15 PM
33030 14.3 3.76 0 84 35 68 5.10 -75 7 02/21/2025 03:00 PM
33029 14.3 4.00 0 84 35 66 5.10 -75 8 02/21/2025 02:45 PM
33028 14.3 3.76 0 84 33 69 5.10 -74 8 02/21/2025 02:15 PM
33027 14.3 3.89 0 82 34 68 5.10 -74 8 02/21/2025 02:00 PM
33026 14.3 3.76 0 80 34 68 5.10 -74 8 02/21/2025 01:45 PM
33025 14.3 3.76 0 79 34 67 5.10 -75 8 02/21/2025 01:30 PM
33024 14.3 3.81 0 79 33 64 5.10 -74 8 02/21/2025 01:15 PM
33023 14.3 3.76 0 78 33 64 5.10 -74 8 02/21/2025 01:00 PM
33022 14.3 3.76 0 76 33 66 5.10 -74 8 02/21/2025 12:45 PM
33021 14.3 3.76 0 74 34 63 5.10 -74 8 02/21/2025 12:30 PM
33020 14.3 3.76 0 72 34 62 5.10 -74 7 02/21/2025 12:15 PM
33019 14.3 3.76 0 71 34 61 5.10 -74 8 02/21/2025 12:00 PM
33018 14.3 3.76 0 70 34 60 5.10 -75 8 02/21/2025 11:45 AM
33017 14.3 3.76 0 68 34 59 5.10 -75 8 02/21/2025 11:30 AM
33016 14.3 4.05 0 66 35 59 5.10 -75 8 02/21/2025 11:15 AM
33015 14.3 3.76 0 65 34 57 5.10 -75 8 02/21/2025 11:00 AM
33014 14.3 3.76 0 64 34 59 5.10 -75 8 02/21/2025 10:45 AM
33013 14.3 3.76 0 62 34 58 5.10 -75 8 02/21/2025 10:30 AM
33012 14.3 3.76 0 60 34 58 5.10 -75 7 02/21/2025 10:15 AM
33011 14.3 4.06 0 58 35 55 5.10 -77 7 02/21/2025 10:00 AM